Time;durP1;ratioP1;P1;durP2;ratioP2;P2;SDS_P1;SDS_P2;PMS_P1;PMS_P2;Temp;Humidity;BMP_temperature;BMP_pressure;BME280_temperature;BME280_humidity;BME280_pressure;Samples;Min_cycle;Max_cycle;Signal;HPM_P1;HPM_P2
2022/12/17 13:08:21;;;;;;;34.35;15.68;;;-1.00;99.90;;;;;;5005366;28;20045;-68
2022/12/17 13:10:48;;;;;;;31.33;16.45;;;-1.00;99.90;;;;;;5038652;28;20038;-68
2022/12/17 13:13:14;;;;;;;32.33;16.88;;;-1.00;99.90;;;;;;5035691;28;20093;-68
2022/12/17 13:15:44;;;;;;;34.83;17.98;;;-1.00;99.90;;;;;;5038505;28;20080;-69
2022/12/17 13:18:35;;;;;;;32.15;16.33;;;-1.00;99.90;;;;;;5048530;28;20049;-69
2022/12/17 13:21:22;;;;;;;36.25;17.85;;;-1.10;99.90;;;;;;5036548;28;20063;-69
2022/12/17 13:23:47;;;;;;;33.45;15.25;;;-1.10;99.90;;;;;;5037502;28;20092;-69
2022/12/17 13:26:15;;;;;;;35.65;16.45;;;-1.10;99.90;;;;;;5039215;28;20513;-69
2022/12/17 13:28:46;;;;;;;32.92;15.73;;;-1.20;99.90;;;;;;5036861;28;20186;-68
2022/12/17 13:31:17;;;;;;;33.42;15.27;;;-1.20;99.90;;;;;;5040703;28;20038;-69
2022/12/17 13:34:20;;;;;;;33.97;15.57;;;-1.20;99.90;;;;;;5039130;28;20103;-69
2022/12/17 13:36:58;;;;;;;35.38;16.38;;;-1.20;99.90;;;;;;5039759;28;20049;-69
2022/12/17 13:39:32;;;;;;;32.72;15.98;;;-1.10;99.90;;;;;;5041340;28;20065;-69
2022/12/17 13:41:58;;;;;;;30.58;16.27;;;-1.30;99.90;;;;;;5038068;28;20053;-69
2022/12/17 13:44:28;;;;;;;34.30;17.33;;;-1.30;99.90;;;;;;5038478;28;20037;-69
2022/12/17 13:46:54;;;;;;;32.40;14.95;;;-1.30;99.90;;;;;;5039268;28;20053;-69
2022/12/17 13:49:25;;;;;;;37.63;14.65;;;-1.30;99.90;;;;;;5021235;28;20045;-68
2022/12/17 13:52:01;;;;;;;29.92;14.93;;;-1.30;99.90;;;;;;5040645;28;20069;-69
2022/12/17 13:54:27;;;;;;;;;;;-1.30;99.90;;;;;;5035709;28;20052;-69
2022/12/17 13:56:53;;;;;;;32.73;14.40;;;-1.30;99.90;;;;;;5040326;28;19988;-69
2022/12/17 13:59:24;;;;;;;35.25;16.92;;;-1.30;99.90;;;;;;5038121;28;20583;-69
2022/12/17 14:01:53;;;;;;;34.33;15.48;;;-1.20;99.90;;;;;;5037827;28;20096;-69
2022/12/17 14:04:24;;;;;;;38.55;16.80;;;-1.20;99.90;;;;;;5039995;28;20073;-69
2022/12/17 14:06:52;;;;;;;29.80;16.10;;;-1.20;99.90;;;;;;5053152;28;20119;-69
2022/12/17 14:09:19;;;;;;;30.45;15.18;;;-1.30;99.90;;;;;;5038006;28;20108;-68
2022/12/17 14:14:45;;;;;;;31.98;13.70;;;-1.30;99.90;;;;;;5049518;28;20049;-68
2022/12/17 14:17:20;;;;;;;31.35;14.40;;;-1.30;99.90;;;;;;5058015;28;20083;-69
2022/12/17 14:19:51;;;;;;;35.72;15.85;;;-1.30;99.90;;;;;;5050645;28;20049;-69
2022/12/17 14:22:31;;;;;;;38.97;17.38;;;-1.40;99.90;;;;;;5039753;28;20047;-69
2022/12/17 14:24:57;;;;;;;30.30;14.40;;;-1.50;99.90;;;;;;5043183;28;20068;-69
2022/12/17 14:27:32;;;;;;;31.95;14.57;;;-1.60;99.90;;;;;;5041428;28;20049;-69
2022/12/17 14:29:57;;;;;;;41.10;15.60;;;-1.60;99.90;;;;;;5057074;28;20037;-69
2022/12/17 14:32:29;;;;;;;34.65;14.98;;;-1.60;99.90;;;;;;5051218;28;20041;-69
2022/12/17 14:34:55;;;;;;;35.00;16.08;;;-1.60;99.90;;;;;;5038659;28;20049;-68
2022/12/17 14:37:24;;;;;;;38.92;14.77;;;-1.60;99.90;;;;;;5036266;28;20076;-68
2022/12/17 14:39:51;;;;;;;31.33;15.07;;;-1.60;99.90;;;;;;5037798;28;20053;-68
2022/12/17 14:42:28;;;;;;;35.42;14.95;;;-1.60;99.90;;;;;;5052034;28;20485;-68
2022/12/17 14:44:55;;;;;;;32.28;12.32;;;-1.60;99.90;;;;;;5058292;28;20466;-69
2022/12/17 14:47:26;;;;;;;33.13;15.63;;;-1.70;99.90;;;;;;5059337;28;20052;-68
2022/12/17 14:49:57;;;;;;;33.50;14.70;;;-1.80;99.90;;;;;;5055616;28;20071;-68
2022/12/17 14:52:33;;;;;;;36.78;15.20;;;-1.80;99.90;;;;;;5059198;28;20556;-69
2022/12/17 14:54:59;;;;;;;31.25;12.70;;;-1.90;99.90;;;;;;5055860;28;20083;-68
2022/12/17 14:57:26;;;;;;;33.90;14.63;;;-1.90;99.90;;;;;;5057258;28;20049;-69
2022/12/17 14:59:51;;;;;;;36.97;14.95;;;-1.90;99.90;;;;;;5017461;28;20093;-69
2022/12/17 15:02:25;;;;;;;37.17;13.32;;;-2.00;99.90;;;;;;5042917;28;20072;-69
2022/12/17 15:04:55;;;;;;;38.28;15.38;;;-2.00;99.90;;;;;;5051465;28;20050;-69
2022/12/17 15:07:24;;;;;;;39.30;14.65;;;-2.00;99.90;;;;;;5021067;28;20042;-69
2022/12/17 15:09:51;;;;;;;41.78;16.48;;;-2.00;99.90;;;;;;5036928;28;20109;-69
2022/12/17 15:12:21;;;;;;;35.25;15.20;;;-2.00;99.90;;;;;;5036549;28;20103;-68
2022/12/17 15:14:47;;;;;;;41.40;14.60;;;-2.00;99.90;;;;;;5048277;28;20055;-69
2022/12/17 15:17:14;;;;;;;42.63;15.23;;;-2.00;99.90;;;;;;5037899;28;20033;-68
2022/12/17 15:19:40;;;;;;;37.95;15.38;;;-2.00;99.90;;;;;;5036065;28;20052;-69
2022/12/17 15:22:13;;;;;;;33.70;14.77;;;-2.00;99.90;;;;;;5038740;28;20065;-69
2022/12/17 15:24:38;;;;;;;37.47;15.63;;;-2.00;99.90;;;;;;5035430;28;20049;-68
2022/12/17 15:27:04;;;;;;;41.25;16.90;;;-1.90;99.90;;;;;;5035832;28;20048;-69
2022/12/17 15:29:30;;;;;;;45.75;17.60;;;-1.70;99.90;;;;;;5059359;28;20053;-68
2022/12/17 15:31:56;;;;;;;38.58;15.75;;;-1.90;99.90;;;;;;5033515;28;20041;-68
2022/12/17 15:34:22;;;;;;;38.47;15.63;;;-1.90;99.90;;;;;;5061854;28;20052;-68
2022/12/17 15:36:47;;;;;;;38.63;15.95;;;-1.90;99.90;;;;;;5033824;28;20045;-69
2022/12/17 15:39:13;;;;;;;45.72;18.83;;;-1.90;99.90;;;;;;5033110;28;20523;-69
2022/12/17 15:44:23;;;;;;;33.65;14.70;;;-2.00;99.90;;;;;;5031460;28;20143;-68
2022/12/17 15:46:49;;;;;;;40.67;15.93;;;-2.10;99.90;;;;;;5048435;28;20069;-68
2022/12/17 15:49:14;;;;;;;33.38;15.02;;;-2.10;99.90;;;;;;5029873;28;20489;-69
2022/12/17 15:51:40;;;;;;;42.63;17.58;;;-2.10;99.90;;;;;;5031497;28;20162;-69
2022/12/17 15:54:06;;;;;;;41.83;17.23;;;-2.20;99.90;;;;;;5047042;28;20092;-69
2022/12/17 15:56:33;;;;;;;34.30;16.25;;;-2.20;99.90;;;;;;5032115;28;20067;-69
2022/12/17 15:58:59;;;;;;;37.22;15.52;;;-2.30;99.90;;;;;;5028825;28;20041;-69
2022/12/17 16:01:25;;;;;;;39.83;16.52;;;-2.20;99.90;;;;;;5030717;28;20148;-69
2022/12/17 16:03:50;;;;;;;37.17;16.42;;;-2.30;99.90;;;;;;5029944;28;20045;-69
2022/12/17 16:06:16;;;;;;;46.78;16.75;;;-2.20;99.90;;;;;;5033621;28;20097;-69
2022/12/17 16:08:42;;;;;;;43.33;17.27;;;-2.20;99.90;;;;;;5030912;28;20140;-68
2022/12/17 16:11:09;;;;;;;38.30;15.95;;;-2.20;99.90;;;;;;5029539;28;20050;-69
2022/12/17 16:13:36;;;;;;;47.60;17.38;;;-2.30;99.90;;;;;;5034712;28;20101;-69
2022/12/17 16:16:02;;;;;;;45.72;17.15;;;-2.20;99.90;;;;;;5044747;28;20134;-69
2022/12/17 16:18:28;;;;;;;42.13;18.58;;;-2.20;99.90;;;;;;5048808;28;20099;-69
2022/12/17 16:20:59;;;;;;;34.22;15.65;;;-2.20;99.90;;;;;;5025621;28;20512;-69
2022/12/17 16:23:25;;;;;;;40.33;16.35;;;-2.20;99.90;;;;;;5048509;28;20061;-69
2022/12/17 16:25:59;;;;;;;42.10;18.42;;;-1.60;99.90;;;;;;5032180;28;20556;-69
2022/12/17 16:28:25;;;;;;;41.22;17.13;;;-2.30;99.90;;;;;;5031075;28;20065;-69
2022/12/17 16:31:01;;;;;;;42.35;18.27;;;-2.30;99.90;;;;;;5034276;28;20124;-70
2022/12/17 16:33:31;;;;;;;36.83;16.52;;;-2.40;99.90;;;;;;5033517;28;20049;-69
2022/12/17 16:35:56;;;;;;;43.53;18.17;;;-2.10;99.90;;;;;;5033320;28;20092;-69
2022/12/17 16:38:22;;;;;;;50.92;20.83;;;-2.30;99.90;;;;;;4999838;28;1103595;-67
2022/12/17 16:40:48;;;;;;;42.88;18.55;;;-2.30;99.90;;;;;;5030903;28;20038;-69
2022/12/17 16:43:14;;;;;;;35.83;17.23;;;-2.40;99.90;;;;;;5036763;28;20172;-69
2022/12/17 16:45:47;;;;;;;33.42;17.50;;;-2.40;99.90;;;;;;5034965;28;20169;-70
2022/12/17 16:48:13;;;;;;;37.35;17.00;;;-1.90;99.90;;;;;;5033888;28;20101;-69
2022/12/17 16:50:39;;;;;;;38.00;16.20;;;-2.50;99.90;;;;;;5035562;28;20071;-69
2022/12/17 16:53:05;;;;;;;41.75;18.27;;;-2.40;99.90;;;;;;5035916;28;20073;-69
2022/12/17 16:55:30;;;;;;;34.50;17.10;;;-2.50;99.90;;;;;;5040662;28;20053;-69
2022/12/17 16:57:56;;;;;;;42.30;18.20;;;-2.40;99.90;;;;;;5040818;28;20052;-69
2022/12/17 17:00:22;;;;;;;38.22;16.33;;;-2.40;99.90;;;;;;5036230;28;20046;-68
2022/12/17 17:02:47;;;;;;;43.92;18.77;;;-2.40;99.90;;;;;;5037430;28;20065;-68
2022/12/17 17:05:13;;;;;;;40.35;18.02;;;-2.40;99.90;;;;;;5059720;28;20033;-69
2022/12/17 17:07:39;;;;;;;41.97;18.20;;;-2.20;99.90;;;;;;5058881;28;20105;-68
2022/12/17 17:10:05;;;;;;;46.05;19.40;;;-2.40;99.90;;;;;;5046953;28;20041;-69
2022/12/17 17:12:30;;;;;;;35.35;15.32;;;-2.30;99.90;;;;;;5037405;28;20053;-69
2022/12/17 17:14:56;;;;;;;43.83;20.35;;;-2.30;99.90;;;;;;5049861;28;20052;-69
2022/12/17 17:17:22;;;;;;;41.08;18.80;;;-2.30;99.90;;;;;;5056052;28;20053;-69
2022/12/17 17:19:47;;;;;;;47.40;21.75;;;-2.30;99.90;;;;;;5054002;28;20048;-69
2022/12/17 17:22:13;;;;;;;42.60;18.85;;;-2.30;99.90;;;;;;5056189;28;20108;-69
2022/12/17 17:24:39;;;;;;;46.50;19.55;;;-2.20;99.90;;;;;;5053825;28;20056;-69
2022/12/17 17:27:04;;;;;;;43.85;20.90;;;-2.20;99.90;;;;;;5055896;28;20045;-69
2022/12/17 17:29:30;;;;;;;41.45;18.45;;;-2.30;99.90;;;;;;5046483;28;20080;-70
2022/12/17 17:31:56;;;;;;;39.08;18.70;;;-2.30;99.90;;;;;;5038423;28;20045;-69
2022/12/17 17:34:21;;;;;;;42.03;20.02;;;-2.30;99.90;;;;;;5039421;28;20057;-69
2022/12/17 17:36:47;;;;;;;44.08;20.13;;;-2.30;99.90;;;;;;5038495;28;20085;-69
2022/12/17 17:39:13;;;;;;;43.03;18.27;;;-2.30;99.90;;;;;;5039273;28;20057;-70
2022/12/17 17:41:38;;;;;;;48.85;21.75;;;-2.30;99.90;;;;;;5036678;28;20053;-69
2022/12/17 17:44:06;;;;;;;53.78;21.90;;;-2.30;99.90;;;;;;5040532;28;20065;-69
2022/12/17 17:46:33;;;;;;;44.28;20.73;;;-2.30;99.90;;;;;;5037314;28;20053;-69
2022/12/17 17:49:01;;;;;;;46.90;21.73;;;-2.30;99.90;;;;;;5037567;28;20053;-70
2022/12/17 17:51:29;;;;;;;44.03;21.13;;;-1.90;99.90;;;;;;5038713;28;20064;-69
2022/12/17 17:53:56;;;;;;;45.63;21.08;;;-2.40;99.90;;;;;;5036893;28;20080;-70
2022/12/17 17:56:30;;;;;;;39.70;18.88;;;-2.40;99.90;;;;;;5039049;28;20053;-70
2022/12/17 17:59:11;;;;;;;45.92;20.83;;;-2.40;99.90;;;;;;5037383;28;20053;-69
2022/12/17 18:01:39;;;;;;;36.95;18.27;;;-2.40;99.90;;;;;;5038579;28;20053;-70
2022/12/17 18:04:08;;;;;;;39.10;20.10;;;-2.40;99.90;;;;;;5053049;28;20041;-69
2022/12/17 18:06:36;;;;;;;43.22;20.60;;;-2.40;99.90;;;;;;5056757;28;20052;-70
2022/12/17 18:09:03;;;;;;;52.47;23.05;;;-2.40;99.90;;;;;;5055251;28;20050;-70
2022/12/17 18:11:30;;;;;;;46.60;21.50;;;-2.50;99.90;;;;;;5036078;28;20049;-70
2022/12/17 18:13:57;;;;;;;42.05;20.35;;;-2.50;99.90;;;;;;5045465;28;20045;-70
2022/12/17 18:16:38;;;;;;;50.22;22.33;;;-2.50;99.90;;;;;;5056962;28;20053;-70
2022/12/17 18:19:10;;;;;;;49.15;21.67;;;-2.50;99.90;;;;;;5057453;28;20076;-70
2022/12/17 18:21:35;;;;;;;47.28;22.65;;;-2.50;99.90;;;;;;5058834;28;20064;-70
2022/12/17 18:24:10;;;;;;;50.50;22.60;;;-2.50;99.90;;;;;;5056319;28;20045;-70
2022/12/17 18:26:41;;;;;;;48.55;22.77;;;-2.50;99.90;;;;;;5058850;28;20615;-70
2022/12/17 18:29:18;;;;;;;45.90;22.33;;;-2.50;99.90;;;;;;5058109;28;20052;-70
2022/12/17 18:31:44;;;;;;;55.15;24.13;;;-2.50;99.90;;;;;;5047088;28;20489;-69
2022/12/17 18:34:13;;;;;;;48.78;22.48;;;-2.50;99.90;;;;;;5045791;28;20065;-69
2022/12/17 18:36:41;;;;;;;49.45;22.75;;;-2.50;99.90;;;;;;5037663;28;20049;-70
2022/12/17 18:39:17;;;;;;;50.22;22.65;;;-2.60;99.90;;;;;;5034404;28;20065;-70
2022/12/17 18:44:31;;;;;;;50.10;23.00;;;-2.60;99.90;;;;;;5035467;28;20057;-70
2022/12/17 18:46:57;;;;;;;50.55;23.27;;;-2.60;99.90;;;;;;5037545;28;20049;-70
2022/12/17 18:49:25;;;;;;;54.45;25.38;;;-2.20;99.90;;;;;;5034864;28;20037;-69
2022/12/17 18:51:52;;;;;;;51.97;22.77;;;-2.60;99.90;;;;;;5038349;28;20397;-69
2022/12/17 18:54:26;;;;;;;52.95;21.95;;;-2.60;99.90;;;;;;5034070;28;20052;-69
2022/12/17 18:56:53;;;;;;;58.60;23.38;;;-2.60;99.90;;;;;;5051586;28;20041;-69
2022/12/17 18:59:21;;;;;;;43.45;21.73;;;-2.60;99.90;;;;;;5037503;28;20053;-69
2022/12/17 19:01:48;;;;;;;52.25;22.88;;;-2.60;99.90;;;;;;5036443;28;20840;-70
2022/12/17 19:04:17;;;;;;;47.90;24.38;;;-2.60;99.90;;;;;;5037660;28;20092;-69
2022/12/17 19:06:43;;;;;;;48.45;22.80;;;-2.60;99.90;;;;;;5051652;28;20060;-69
2022/12/17 19:09:18;;;;;;;52.15;22.70;;;-2.60;99.90;;;;;;5051232;28;20049;-70
2022/12/17 19:11:43;;;;;;;46.50;20.95;;;-2.60;99.90;;;;;;5035718;28;20045;-69
2022/12/17 19:14:09;;;;;;;44.97;20.27;;;-2.60;99.90;;;;;;5044126;28;20541;-70
2022/12/17 19:16:35;;;;;;;45.42;22.17;;;-2.70;99.90;;;;;;5037215;28;20105;-69
2022/12/17 19:19:03;;;;;;;42.28;20.42;;;-2.50;99.90;;;;;;5036512;28;20045;-70
2022/12/17 19:21:30;;;;;;;52.63;23.65;;;-2.70;99.90;;;;;;5037264;28;20060;-70
2022/12/17 19:23:58;;;;;;;52.50;22.75;;;-2.30;99.90;;;;;;5033326;28;20419;-70
2022/12/17 19:26:25;;;;;;;47.15;22.65;;;-2.80;99.90;;;;;;5035831;28;20052;-70
2022/12/17 19:28:52;;;;;;;49.78;22.70;;;-2.70;99.90;;;;;;5034319;28;20061;-70
2022/12/17 19:31:20;;;;;;;44.67;21.02;;;-2.70;99.90;;;;;;5036874;28;20045;-69
2022/12/17 19:33:46;;;;;;;52.88;21.38;;;-2.80;99.90;;;;;;5035790;28;20125;-69
2022/12/17 19:36:15;;;;;;;46.50;20.48;;;-2.70;99.90;;;;;;5036139;28;20092;-70
2022/12/17 19:38:41;;;;;;;41.85;20.85;;;-2.70;99.90;;;;;;5037268;28;20053;-68
2022/12/17 19:41:10;;;;;;;46.72;20.77;;;-2.70;99.90;;;;;;5054676;28;20437;-69
2022/12/17 19:43:36;;;;;;;47.70;20.58;;;-2.70;99.90;;;;;;5056762;28;20045;-70
2022/12/17 19:46:05;;;;;;;45.00;20.10;;;-2.70;99.90;;;;;;5054577;28;20088;-69
2022/12/17 19:48:35;;;;;;;44.05;21.67;;;-2.80;99.90;;;;;;5057759;28;20094;-69
2022/12/17 19:51:02;;;;;;;38.50;19.90;;;-2.70;99.90;;;;;;5055956;28;20040;-69
2022/12/17 19:53:29;;;;;;;48.42;20.45;;;-2.40;99.90;;;;;;5054253;28;20056;-70
2022/12/17 19:56:07;;;;;;;49.67;23.05;;;-2.80;99.90;;;;;;5051514;28;20046;-69
2022/12/17 19:58:32;;;;;;;50.42;22.88;;;-2.80;99.90;;;;;;5046750;28;20377;-69
2022/12/17 20:01:08;;;;;;;48.58;22.15;;;-2.80;99.90;;;;;;5043941;28;20124;-69
2022/12/17 20:03:35;;;;;;;54.85;24.08;;;-2.80;99.90;;;;;;5035339;28;20132;-69
2022/12/17 20:06:00;;;;;;;47.13;22.10;;;-2.80;99.90;;;;;;5055011;28;20053;-69
2022/12/17 20:08:26;;;;;;;44.55;21.67;;;-2.70;99.90;;;;;;5055442;28;20045;-69
2022/12/17 20:10:52;;;;;;;58.33;23.65;;;-2.80;99.90;;;;;;5036041;28;20061;-70
2022/12/17 20:13:17;;;;;;;48.22;22.48;;;-2.80;99.90;;;;;;5044809;28;20040;-70
2022/12/17 20:15:43;;;;;;;50.78;23.08;;;-2.70;99.90;;;;;;5034187;28;20053;-69
2022/12/17 20:18:09;;;;;;;51.60;22.27;;;-2.70;99.90;;;;;;5036789;28;20044;-69
2022/12/17 20:20:34;;;;;;;49.85;22.13;;;-2.70;99.90;;;;;;5035009;28;20050;-69
2022/12/17 20:23:00;;;;;;;52.47;23.73;;;-2.70;99.90;;;;;;5036004;28;20049;-69
2022/12/17 20:25:26;;;;;;;52.13;22.42;;;-2.60;99.90;;;;;;5038648;28;20446;-69
2022/12/17 20:27:51;;;;;;;50.88;21.52;;;-2.60;99.90;;;;;;5043556;28;20057;-69
2022/12/17 20:30:17;;;;;;;60.13;24.25;;;-2.60;99.90;;;;;;5050065;28;20092;-69
2022/12/17 20:32:43;;;;;;;50.80;21.63;;;-2.60;99.90;;;;;;5055504;28;20250;-69
2022/12/17 20:35:09;;;;;;;55.90;22.52;;;-2.60;99.90;;;;;;5039570;28;20467;-69
2022/12/17 20:37:35;;;;;;;53.58;23.48;;;-2.60;99.90;;;;;;5034641;28;20042;-69
2022/12/17 20:40:00;;;;;;;53.28;20.52;;;-2.60;99.90;;;;;;5035386;28;20057;-69
2022/12/17 20:42:26;;;;;;;51.80;23.42;;;-2.60;99.90;;;;;;5031918;28;20056;-69
2022/12/17 20:44:52;;;;;;;49.72;21.27;;;-2.60;99.90;;;;;;5016456;28;20041;-69
2022/12/17 20:47:17;;;;;;;50.70;20.67;;;-2.60;99.90;;;;;;5018221;28;20057;-70
2022/12/17 20:49:43;;;;;;;52.05;21.27;;;-2.70;99.90;;;;;;5014659;28;20112;-69
2022/12/17 20:52:09;;;;;;;50.00;20.27;;;-2.70;99.90;;;;;;5018007;28;20805;-70
2022/12/17 20:54:34;;;;;;;50.47;22.27;;;-2.70;99.90;;;;;;5023899;28;20518;-69
2022/12/17 20:57:00;;;;;;;46.28;20.80;;;-2.70;99.90;;;;;;5043542;28;20397;-69
2022/12/17 20:59:26;;;;;;;61.03;23.83;;;-2.70;99.90;;;;;;5049536;28;20094;-69
2022/12/17 21:01:52;;;;;;;51.10;22.70;;;-2.80;99.90;;;;;;5055101;28;20059;-69
2022/12/17 21:04:17;;;;;;;51.00;22.17;;;-2.80;99.90;;;;;;5039716;28;20654;-69
2022/12/17 21:06:46;;;;;;;56.45;23.40;;;-2.80;99.90;;;;;;5037883;28;20053;-69
2022/12/17 21:09:13;;;;;;;49.60;22.83;;;-2.80;99.90;;;;;;5039899;28;20076;-69
2022/12/17 21:11:40;;;;;;;57.63;22.55;;;-2.70;99.90;;;;;;5040480;28;20071;-69
2022/12/17 21:14:08;;;;;;;51.60;23.33;;;-2.80;99.90;;;;;;5070473;28;20099;-69
2022/12/17 21:16:35;;;;;;;55.45;21.15;;;-2.80;99.90;;;;;;5043390;28;20045;-69
2022/12/17 21:19:02;;;;;;;49.88;21.60;;;-2.80;99.90;;;;;;5053859;28;20056;-69
2022/12/17 21:21:30;;;;;;;52.10;22.08;;;-2.90;99.90;;;;;;5039173;28;20046;-69
2022/12/17 21:23:57;;;;;;;51.40;22.17;;;-2.90;99.90;;;;;;5036658;28;20540;-69
2022/12/17 21:26:34;;;;;;;48.60;21.45;;;-2.90;99.90;;;;;;5039411;28;20052;-69
2022/12/17 21:29:01;;;;;;;48.38;20.75;;;-3.00;99.90;;;;;;5067048;28;20124;-70
2022/12/17 21:31:42;;;;;;;50.22;20.95;;;-3.00;99.90;;;;;;5022179;28;20103;-70
2022/12/17 21:34:15;;;;;;;50.42;21.63;;;-3.00;99.90;;;;;;5038567;28;20057;-70
2022/12/17 21:36:42;;;;;;;45.55;19.30;;;-3.00;99.90;;;;;;5038444;28;20152;-69
2022/12/17 21:39:10;;;;;;;52.00;21.27;;;-3.10;99.90;;;;;;5040422;28;20450;-69
2022/12/17 21:41:39;;;;;;;48.40;21.77;;;-3.20;99.90;;;;;;5036461;28;20072;-69
2022/12/17 21:44:07;;;;;;;51.08;20.50;;;-3.20;99.90;;;;;;5041244;28;20105;-70
2022/12/17 21:46:33;;;;;;;54.33;22.75;;;-3.20;99.90;;;;;;5038128;28;20545;-70
2022/12/17 21:49:01;;;;;;;48.00;21.27;;;-2.30;99.90;;;;;;5038803;28;20334;-70
2022/12/17 21:51:31;;;;;;;50.53;20.60;;;-3.20;99.90;;;;;;5039804;28;20053;-69
2022/12/17 21:53:59;;;;;;;49.03;21.95;;;-3.20;99.90;;;;;;5051972;28;20076;-69
2022/12/17 21:56:26;;;;;;;49.88;21.45;;;-3.20;99.90;;;;;;5041709;28;20050;-70
2022/12/17 21:58:59;;;;;;;49.40;19.98;;;-3.20;99.90;;;;;;5037301;28;20053;-69
2022/12/17 22:01:28;;;;;;;47.60;21.02;;;-3.30;99.90;;;;;;5038756;28;20044;-69
2022/12/17 22:03:56;;;;;;;51.20;21.30;;;-3.20;99.90;;;;;;5037717;28;20041;-69
2022/12/17 22:06:24;;;;;;;52.40;23.45;;;-3.30;99.90;;;;;;5037053;28;20167;-70
2022/12/17 22:08:50;;;;;;;48.38;21.25;;;-3.30;99.90;;;;;;5022746;28;20532;-70
2022/12/17 22:11:18;;;;;;;52.92;21.88;;;-3.00;99.90;;;;;;5035851;28;20045;-70
2022/12/17 22:16:33;;;;;;;52.80;23.40;;;-4.40;99.90;;;;;;5056538;28;20520;-69
2022/12/17 22:19:00;;;;;;;44.17;19.08;;;-3.40;99.90;;;;;;5058942;28;20570;-69
2022/12/17 22:21:26;;;;;;;43.63;17.15;;;-3.50;99.90;;;;;;5060077;28;20063;-69
2022/12/17 22:23:52;;;;;;;52.03;20.13;;;-3.50;99.90;;;;;;5056307;28;20059;-69
2022/12/17 22:26:18;;;;;;;47.80;20.23;;;-3.60;99.90;;;;;;5050460;28;20052;-69
2022/12/17 22:28:48;;;;;;;50.10;21.27;;;-3.00;99.90;;;;;;5056679;28;20147;-69
2022/12/17 22:34:06;;;;;;;48.03;19.70;;;-3.60;99.90;;;;;;5058003;28;20045;-68
2022/12/17 22:36:33;;;;;;;51.78;20.90;;;-3.60;99.90;;;;;;5058086;28;20059;-68
2022/12/17 22:39:03;;;;;;;50.65;19.38;;;-3.60;99.90;;;;;;5054075;28;20045;-68
2022/12/17 22:44:13;;;;;;;44.15;19.63;;;-3.50;99.90;;;;;;5045943;28;20136;-69
2022/12/17 22:46:40;;;;;;;45.65;19.90;;;-3.50;99.90;;;;;;5037360;28;20048;-69
2022/12/17 22:49:06;;;;;;;49.22;23.85;;;-3.80;99.90;;;;;;5056164;28;20055;-69
2022/12/17 22:51:32;;;;;;;51.45;20.92;;;-3.60;99.90;;;;;;5053024;28;20097;-69
2022/12/17 22:54:03;;;;;;;45.15;20.10;;;-3.70;99.90;;;;;;5052765;28;20085;-69
2022/12/17 22:56:29;;;;;;;48.25;21.05;;;-3.70;99.90;;;;;;5048916;28;20090;-69
2022/12/17 22:58:55;;;;;;;47.45;20.55;;;-3.70;99.90;;;;;;5044775;28;20033;-69
2022/12/17 23:01:21;;;;;;;56.75;22.13;;;-3.80;99.90;;;;;;5050125;28;20049;-69
2022/12/17 23:03:47;;;;;;;55.67;22.25;;;-3.80;99.90;;;;;;5064800;28;20083;-68
2022/12/17 23:06:15;;;;;;;48.45;20.38;;;-3.70;99.90;;;;;;5047191;28;20046;-69
2022/12/17 23:08:42;;;;;;;51.88;20.73;;;-3.70;99.90;;;;;;5059492;28;20116;-68
2022/12/17 23:11:20;;;;;;;44.55;17.80;;;-3.70;99.90;;;;;;5048597;28;20527;-68
2022/12/17 23:13:46;;;;;;;49.67;20.05;;;-3.70;99.90;;;;;;5056519;28;20485;-69
2022/12/17 23:16:13;;;;;;;43.95;17.88;;;-3.70;99.90;;;;;;5040437;28;20126;-69
2022/12/17 23:18:40;;;;;;;50.53;22.92;;;-3.70;99.90;;;;;;5053427;28;20046;-69
2022/12/17 23:21:11;;;;;;;45.15;19.65;;;-3.70;99.90;;;;;;5057451;28;20120;-68
2022/12/17 23:23:37;;;;;;;44.25;18.83;;;-3.70;99.90;;;;;;5043334;28;20063;-69
2022/12/17 23:26:13;;;;;;;47.85;20.40;;;-3.80;99.90;;;;;;5062373;28;20044;-69
2022/12/17 23:28:39;;;;;;;45.58;20.67;;;-3.80;99.90;;;;;;5059465;28;20596;-68
2022/12/17 23:31:11;;;;;;;49.35;21.23;;;-3.90;99.90;;;;;;5041407;28;20048;-69
2022/12/17 23:33:37;;;;;;;51.38;21.05;;;-3.90;99.90;;;;;;5052347;28;20093;-68
2022/12/17 23:36:06;;;;;;;50.60;21.23;;;-3.90;99.90;;;;;;5050771;28;20060;-69
2022/12/17 23:38:31;;;;;;;53.13;22.13;;;-3.90;99.90;;;;;;5055074;28;20050;-69
2022/12/17 23:41:09;;;;;;;51.20;21.88;;;-3.80;99.90;;;;;;5018446;28;20049;-69
2022/12/17 23:43:35;;;;;;;56.65;22.48;;;-3.90;99.90;;;;;;5049215;28;20557;-69
2022/12/17 23:46:01;;;;;;;56.72;23.30;;;-3.80;99.90;;;;;;5037572;28;20041;-69
2022/12/17 23:48:29;;;;;;;48.67;19.42;;;-3.80;99.90;;;;;;5050253;28;20049;-69
2022/12/17 23:50:55;;;;;;;45.95;19.65;;;-3.80;99.90;;;;;;5041888;28;20052;-69
2022/12/17 23:53:21;;;;;;;47.28;19.98;;;-3.20;99.90;;;;;;5043738;28;20054;-69
2022/12/17 23:55:48;;;;;;;40.83;18.10;;;-3.80;99.90;;;;;;5050779;28;20057;-69
2022/12/17 23:58:13;;;;;;;45.65;20.90;;;-3.80;99.90;;;;;;5046512;28;20058;-68
